sensor_id;sensor_type;location;lat;lon;timestamp;pressure;altitude;pressure_sealevel;temperature;humidity
49194;BME280;35029;50.804;12.866;2023-03-02T00:02:25;98374.88;;;-2.72;93.17
49194;BME280;35029;50.804;12.866;2023-03-02T00:04:55;98360.06;;;-2.84;92.76
49194;BME280;35029;50.804;12.866;2023-03-02T00:07:29;98374.31;;;-2.77;92.04
49194;BME280;35029;50.804;12.866;2023-03-02T00:09:57;98352.41;;;-3.00;92.41
49194;BME280;35029;50.804;12.866;2023-03-02T00:12:23;98363.13;;;-2.92;93.15
49194;BME280;35029;50.804;12.866;2023-03-02T00:14:51;98371.69;;;-2.90;93.19
49194;BME280;35029;50.804;12.866;2023-03-02T00:17:16;98348.88;;;-2.99;93.27
49194;BME280;35029;50.804;12.866;2023-03-02T00:19:42;98354.28;;;-3.02;93.22
49194;BME280;35029;50.804;12.866;2023-03-02T00:22:09;98369.91;;;-2.90;93.73
49194;BME280;35029;50.804;12.866;2023-03-02T00:24:34;98361.28;;;-2.90;94.02
49194;BME280;35029;50.804;12.866;2023-03-02T00:27:00;98343.31;;;-2.93;93.58
49194;BME280;35029;50.804;12.866;2023-03-02T00:29:26;98342.22;;;-3.03;93.12
49194;BME280;35029;50.804;12.866;2023-03-02T00:31:51;98340.19;;;-2.98;93.40
49194;BME280;35029;50.804;12.866;2023-03-02T00:34:17;98358.06;;;-2.94;93.00
49194;BME280;35029;50.804;12.866;2023-03-02T00:36:42;98334.28;;;-3.15;93.77
49194;BME280;35029;50.804;12.866;2023-03-02T00:39:08;98351.59;;;-3.01;94.09
49194;BME280;35029;50.804;12.866;2023-03-02T00:41:33;98347.06;;;-3.12;94.22
49194;BME280;35029;50.804;12.866;2023-03-02T00:43:59;98360.38;;;-3.03;94.22
49194;BME280;35029;50.804;12.866;2023-03-02T00:46:25;98341.56;;;-3.07;94.41
49194;BME280;35029;50.804;12.866;2023-03-02T00:48:52;98351.38;;;-2.98;94.27
49194;BME280;35029;50.804;12.866;2023-03-02T00:51:18;98342.69;;;-2.97;94.61
49194;BME280;35029;50.804;12.866;2023-03-02T00:53:44;98349.72;;;-2.99;93.81
49194;BME280;35029;50.804;12.866;2023-03-02T00:56:11;98339.38;;;-3.13;93.03
49194;BME280;35029;50.804;12.866;2023-03-02T00:58:41;98360.28;;;-3.02;93.75
49194;BME280;35029;50.804;12.866;2023-03-02T01:01:09;98346.19;;;-3.12;94.30
49194;BME280;35029;50.804;12.866;2023-03-02T01:03:38;98343.81;;;-3.15;94.35
49194;BME280;35029;50.804;12.866;2023-03-02T01:06:05;98320.09;;;-3.24;94.16
49194;BME280;35029;50.804;12.866;2023-03-02T01:08:31;98334.19;;;-3.13;94.54
49194;BME280;35029;50.804;12.866;2023-03-02T01:10:56;98334.91;;;-2.97;94.30
49194;BME280;35029;50.804;12.866;2023-03-02T01:13:26;98292.78;;;-3.15;93.79
49194;BME280;35029;50.804;12.866;2023-03-02T01:16:00;98326.38;;;-2.99;93.81
49194;BME280;35029;50.804;12.866;2023-03-02T01:18:26;98323.50;;;-2.94;94.65
49194;BME280;35029;50.804;12.866;2023-03-02T01:21:00;98323.97;;;-3.02;93.74
49194;BME280;35029;50.804;12.866;2023-03-02T01:23:27;98302.22;;;-3.14;93.67
49194;BME280;35029;50.804;12.866;2023-03-02T01:25:52;98305.75;;;-3.15;94.03
49194;BME280;35029;50.804;12.866;2023-03-02T01:28:19;98314.06;;;-3.10;94.28
49194;BME280;35029;50.804;12.866;2023-03-02T01:30:46;98320.56;;;-3.02;93.98
49194;BME280;35029;50.804;12.866;2023-03-02T01:33:11;98322.28;;;-3.03;94.02
49194;BME280;35029;50.804;12.866;2023-03-02T01:35:38;98289.00;;;-3.24;93.63
49194;BME280;35029;50.804;12.866;2023-03-02T01:38:03;98312.03;;;-3.04;93.98
49194;BME280;35029;50.804;12.866;2023-03-02T01:40:29;98301.59;;;-3.17;93.63
49194;BME280;35029;50.804;12.866;2023-03-02T01:42:59;98296.19;;;-3.14;93.72
49194;BME280;35029;50.804;12.866;2023-03-02T01:45:52;98313.97;;;-3.08;93.53
49194;BME280;35029;50.804;12.866;2023-03-02T01:48:34;98301.94;;;-3.24;92.92
49194;BME280;35029;50.804;12.866;2023-03-02T01:51:03;98305.09;;;-3.18;93.57
49194;BME280;35029;50.804;12.866;2023-03-02T01:53:31;98281.66;;;-3.31;93.78
49194;BME280;35029;50.804;12.866;2023-03-02T01:56:01;98292.78;;;-3.29;94.17
49194;BME280;35029;50.804;12.866;2023-03-02T01:58:31;98305.91;;;-3.18;94.35
49194;BME280;35029;50.804;12.866;2023-03-02T02:00:59;98284.19;;;-3.30;93.79
49194;BME280;35029;50.804;12.866;2023-03-02T02:03:27;98305.31;;;-3.21;93.15
49194;BME280;35029;50.804;12.866;2023-03-02T02:06:05;98299.47;;;-3.25;93.22
49194;BME280;35029;50.804;12.866;2023-03-02T02:08:34;98278.66;;;-3.38;93.86
49194;BME280;35029;50.804;12.866;2023-03-02T02:11:00;98279.47;;;-3.37;93.80
49194;BME280;35029;50.804;12.866;2023-03-02T02:13:26;98287.06;;;-3.34;92.65
49194;BME280;35029;50.804;12.866;2023-03-02T02:15:52;98275.31;;;-3.40;93.03
49194;BME280;35029;50.804;12.866;2023-03-02T02:18:17;98279.13;;;-3.46;93.64
49194;BME280;35029;50.804;12.866;2023-03-02T02:20:44;98275.50;;;-3.43;94.14
49194;BME280;35029;50.804;12.866;2023-03-02T02:28:18;98293.34;;;-3.38;92.86
49194;BME280;35029;50.804;12.866;2023-03-02T02:30:48;98300.56;;;-3.44;93.72
49194;BME280;35029;50.804;12.866;2023-03-02T02:33:18;98282.00;;;-3.50;93.69
49194;BME280;35029;50.804;12.866;2023-03-02T02:35:46;98288.81;;;-3.49;94.03
49194;BME280;35029;50.804;12.866;2023-03-02T02:38:16;98291.91;;;-3.57;93.50
49194;BME280;35029;50.804;12.866;2023-03-02T02:41:04;98298.63;;;-3.54;93.93
49194;BME280;35029;50.804;12.866;2023-03-02T02:43:33;98295.31;;;-3.57;93.81
49194;BME280;35029;50.804;12.866;2023-03-02T02:46:00;98294.50;;;-3.57;93.79
49194;BME280;35029;50.804;12.866;2023-03-02T02:48:27;98276.91;;;-3.66;93.68
49194;BME280;35029;50.804;12.866;2023-03-02T02:50:56;98282.56;;;-3.60;93.85
49194;BME280;35029;50.804;12.866;2023-03-02T02:56:11;98286.16;;;-3.62;93.23
49194;BME280;35029;50.804;12.866;2023-03-02T02:58:43;98267.84;;;-3.74;93.14
49194;BME280;35029;50.804;12.866;2023-03-02T03:01:15;98281.31;;;-3.68;92.96
49194;BME280;35029;50.804;12.866;2023-03-02T03:03:46;98271.06;;;-3.84;93.83
49194;BME280;35029;50.804;12.866;2023-03-02T03:06:19;98270.88;;;-3.81;94.58
49194;BME280;35029;50.804;12.866;2023-03-02T03:11:21;98279.38;;;-3.79;94.92
49194;BME280;35029;50.804;12.866;2023-03-02T03:16:28;98270.22;;;-3.85;94.04
49194;BME280;35029;50.804;12.866;2023-03-02T03:18:56;98255.41;;;-3.97;94.23
49194;BME280;35029;50.804;12.866;2023-03-02T03:21:23;98254.75;;;-4.01;93.93
49194;BME280;35029;50.804;12.866;2023-03-02T03:23:48;98267.91;;;-3.89;94.48
49194;BME280;35029;50.804;12.866;2023-03-02T03:26:15;98271.53;;;-3.92;94.30
49194;BME280;35029;50.804;12.866;2023-03-02T03:28:41;98273.56;;;-3.83;94.83
49194;BME280;35029;50.804;12.866;2023-03-02T03:31:07;98249.41;;;-3.98;95.17
49194;BME280;35029;50.804;12.866;2023-03-02T03:33:32;98261.72;;;-3.87;94.99
49194;BME280;35029;50.804;12.866;2023-03-02T03:35:58;98247.75;;;-3.99;92.98
49194;BME280;35029;50.804;12.866;2023-03-02T03:38:26;98253.59;;;-3.95;93.94
49194;BME280;35029;50.804;12.866;2023-03-02T03:40:52;98240.78;;;-4.13;93.92
49194;BME280;35029;50.804;12.866;2023-03-02T03:43:18;98249.13;;;-4.08;94.67
49194;BME280;35029;50.804;12.866;2023-03-02T03:45:49;98256.22;;;-3.97;94.77
49194;BME280;35029;50.804;12.866;2023-03-02T03:48:17;98234.97;;;-4.16;94.10
49194;BME280;35029;50.804;12.866;2023-03-02T03:50:46;98249.19;;;-4.09;94.81
49194;BME280;35029;50.804;12.866;2023-03-02T03:53:12;98245.59;;;-4.07;94.87
49194;BME280;35029;50.804;12.866;2023-03-02T03:55:39;98243.09;;;-4.08;93.83
49194;BME280;35029;50.804;12.866;2023-03-02T03:58:04;98241.25;;;-4.20;94.43
49194;BME280;35029;50.804;12.866;2023-03-02T04:00:31;98244.66;;;-4.20;94.26
49194;BME280;35029;50.804;12.866;2023-03-02T04:03:03;98232.19;;;-4.28;94.17
49194;BME280;35029;50.804;12.866;2023-03-02T04:05:31;98243.81;;;-4.20;94.74
49194;BME280;35029;50.804;12.866;2023-03-02T04:07:56;98249.19;;;-4.23;94.69
49194;BME280;35029;50.804;12.866;2023-03-02T04:10:25;98245.75;;;-4.24;95.30
49194;BME280;35029;50.804;12.866;2023-03-02T04:12:52;98254.84;;;-4.17;94.66
49194;BME280;35029;50.804;12.866;2023-03-02T04:15:17;98237.97;;;-4.38;93.79
49194;BME280;35029;50.804;12.866;2023-03-02T04:17:45;98259.16;;;-4.32;95.62
49194;BME280;35029;50.804;12.866;2023-03-02T04:20:13;98254.56;;;-4.27;96.13
49194;BME280;35029;50.804;12.866;2023-03-02T04:22:46;98258.44;;;-4.19;95.34
49194;BME280;35029;50.804;12.866;2023-03-02T04:25:13;98261.38;;;-4.26;95.29
49194;BME280;35029;50.804;12.866;2023-03-02T04:27:40;98248.63;;;-4.29;95.95
49194;BME280;35029;50.804;12.866;2023-03-02T04:30:07;98232.91;;;-4.40;95.84
49194;BME280;35029;50.804;12.866;2023-03-02T04:32:33;98247.94;;;-4.32;97.14
49194;BME280;35029;50.804;12.866;2023-03-02T04:34:58;98228.72;;;-4.43;96.23
49194;BME280;35029;50.804;12.866;2023-03-02T04:37:25;98240.75;;;-4.42;95.89
49194;BME280;35029;50.804;12.866;2023-03-02T04:39:51;98259.06;;;-4.30;95.42
49194;BME280;35029;50.804;12.866;2023-03-02T04:42:19;98245.31;;;-4.31;95.94
49194;BME280;35029;50.804;12.866;2023-03-02T04:44:45;98240.38;;;-4.35;94.96
49194;BME280;35029;50.804;12.866;2023-03-02T04:47:11;98246.94;;;-4.30;94.87
49194;BME280;35029;50.804;12.866;2023-03-02T04:49:36;98246.94;;;-4.30;94.97
49194;BME280;35029;50.804;12.866;2023-03-02T04:52:02;98234.81;;;-4.44;94.19
49194;BME280;35029;50.804;12.866;2023-03-02T04:54:28;98240.09;;;-4.45;95.01
49194;BME280;35029;50.804;12.866;2023-03-02T04:56:59;98254.91;;;-4.33;95.25
49194;BME280;35029;50.804;12.866;2023-03-02T04:59:27;98234.81;;;-4.44;94.83
49194;BME280;35029;50.804;12.866;2023-03-02T05:01:53;98262.88;;;-4.21;95.19
49194;BME280;35029;50.804;12.866;2023-03-02T05:04:20;98244.53;;;-4.33;94.92
49194;BME280;35029;50.804;12.866;2023-03-02T05:06:46;98247.41;;;-4.37;94.40
49194;BME280;35029;50.804;12.866;2023-03-02T05:09:12;98249.00;;;-4.35;94.93
49194;BME280;35029;50.804;12.866;2023-03-02T05:11:37;98249.91;;;-4.36;94.86
49194;BME280;35029;50.804;12.866;2023-03-02T05:14:05;98244.91;;;-4.39;95.01
49194;BME280;35029;50.804;12.866;2023-03-02T05:16:33;98243.97;;;-4.38;94.69
49194;BME280;35029;50.804;12.866;2023-03-02T05:18:59;98227.06;;;-4.44;94.93
49194;BME280;35029;50.804;12.866;2023-03-02T05:21:26;98238.78;;;-4.38;95.26
49194;BME280;35029;50.804;12.866;2023-03-02T05:23:52;98253.91;;;-4.30;94.92
49194;BME280;35029;50.804;12.866;2023-03-02T05:26:18;98238.06;;;-4.40;94.63
49194;BME280;35029;50.804;12.866;2023-03-02T05:28:44;98257.78;;;-4.37;93.82
49194;BME280;35029;50.804;12.866;2023-03-02T05:31:19;98241.66;;;-4.43;94.68
49194;BME280;35029;50.804;12.866;2023-03-02T05:33:47;98252.75;;;-4.41;93.75
49194;BME280;35029;50.804;12.866;2023-03-02T05:36:14;98221.91;;;-4.60;93.96
49194;BME280;35029;50.804;12.866;2023-03-02T05:38:40;98253.50;;;-4.38;94.92
49194;BME280;35029;50.804;12.866;2023-03-02T05:41:05;98246.94;;;-4.44;94.42
49194;BME280;35029;50.804;12.866;2023-03-02T05:43:31;98217.13;;;-4.66;94.13
49194;BME280;35029;50.804;12.866;2023-03-02T05:45:56;98238.13;;;-4.56;94.55
49194;BME280;35029;50.804;12.866;2023-03-02T05:48:31;98251.06;;;-4.56;94.74
49194;BME280;35029;50.804;12.866;2023-03-02T05:50:57;98228.78;;;-4.59;95.67
49194;BME280;35029;50.804;12.866;2023-03-02T05:53:23;98247.53;;;-4.55;95.88
49194;BME280;35029;50.804;12.866;2023-03-02T05:55:49;98252.63;;;-4.53;95.29
49194;BME280;35029;50.804;12.866;2023-03-02T05:58:16;98259.38;;;-4.51;95.74
49194;BME280;35029;50.804;12.866;2023-03-02T06:00:43;98251.72;;;-4.52;94.94
49194;BME280;35029;50.804;12.866;2023-03-02T06:03:09;98245.16;;;-4.58;95.53
49194;BME280;35029;50.804;12.866;2023-03-02T06:05:35;98262.38;;;-4.43;95.66
49194;BME280;35029;50.804;12.866;2023-03-02T06:08:00;98242.81;;;-4.63;95.15
49194;BME280;35029;50.804;12.866;2023-03-02T06:10:26;98263.94;;;-4.40;95.08
49194;BME280;35029;50.804;12.866;2023-03-02T06:12:52;98211.84;;;-4.64;95.44
49194;BME280;35029;50.804;12.866;2023-03-02T06:15:18;98258.50;;;-4.35;95.40
49194;BME280;35029;50.804;12.866;2023-03-02T06:17:43;98195.66;;;-4.68;95.25
49194;BME280;35029;50.804;12.866;2023-03-02T06:20:10;98261.75;;;-4.32;95.04
49194;BME280;35029;50.804;12.866;2023-03-02T06:22:40;98228.44;;;-4.52;95.34
49194;BME280;35029;50.804;12.866;2023-03-02T06:25:08;98251.78;;;-4.23;95.38
49194;BME280;35029;50.804;12.866;2023-03-02T06:27:34;98252.41;;;-4.20;95.05
49194;BME280;35029;50.804;12.866;2023-03-02T06:29:59;98190.53;;;-4.53;94.73
49194;BME280;35029;50.804;12.866;2023-03-02T06:32:25;98257.25;;;-4.14;95.33
49194;BME280;35029;50.804;12.866;2023-03-02T06:34:50;98249.56;;;-4.15;95.56
49194;BME280;35029;50.804;12.866;2023-03-02T06:37:16;98225.91;;;-4.23;96.15
49194;BME280;35029;50.804;12.866;2023-03-02T06:39:42;98223.94;;;-4.20;95.90
49194;BME280;35029;50.804;12.866;2023-03-02T06:42:07;98245.72;;;-3.94;96.62
49194;BME280;35029;50.804;12.866;2023-03-02T06:44:33;98251.06;;;-3.97;95.42
49194;BME280;35029;50.804;12.866;2023-03-02T06:46:59;98248.56;;;-3.98;95.66
49194;BME280;35029;50.804;12.866;2023-03-02T06:49:24;98252.72;;;-3.96;95.56
49194;BME280;35029;50.804;12.866;2023-03-02T06:51:55;98250.50;;;-3.59;100.00
49194;BME280;35029;50.804;12.866;2023-03-02T06:54:21;98254.13;;;-2.78;100.00
49194;BME280;35029;50.804;12.866;2023-03-02T06:56:46;98250.88;;;-2.94;96.10
49194;BME280;35029;50.804;12.866;2023-03-02T06:59:12;98267.09;;;-3.05;94.98
49194;BME280;35029;50.804;12.866;2023-03-02T07:01:37;98265.28;;;-3.32;94.30
49194;BME280;35029;50.804;12.866;2023-03-02T07:04:04;98235.59;;;-3.55;95.70
49194;BME280;35029;50.804;12.866;2023-03-02T07:06:29;98274.84;;;-3.32;95.69
49194;BME280;35029;50.804;12.866;2023-03-02T07:08:56;98273.63;;;-3.27;96.49
49194;BME280;35029;50.804;12.866;2023-03-02T07:11:21;98274.69;;;-3.16;96.79
49194;BME280;35029;50.804;12.866;2023-03-02T07:13:49;98268.22;;;-3.09;96.74
49194;BME280;35029;50.804;12.866;2023-03-02T07:16:20;98272.09;;;-3.02;96.49
49194;BME280;35029;50.804;12.866;2023-03-02T07:18:46;98245.84;;;-2.97;96.58
49194;BME280;35029;50.804;12.866;2023-03-02T07:21:11;98244.44;;;-2.89;96.96
49194;BME280;35029;50.804;12.866;2023-03-02T07:23:38;98261.84;;;-2.63;96.57
49194;BME280;35029;50.804;12.866;2023-03-02T07:26:04;98211.88;;;-2.80;96.00
49194;BME280;35029;50.804;12.866;2023-03-02T07:28:33;98253.91;;;-2.47;96.19
49194;BME280;35029;50.804;12.866;2023-03-02T07:30:59;98266.63;;;-2.30;96.25
49194;BME280;35029;50.804;12.866;2023-03-02T07:33:24;98268.94;;;-2.12;96.39
49194;BME280;35029;50.804;12.866;2023-03-02T07:35:50;98269.47;;;-2.07;95.64
49194;BME280;35029;50.804;12.866;2023-03-02T07:38:15;98259.28;;;-1.97;96.45
49194;BME280;35029;50.804;12.866;2023-03-02T07:40:48;98270.91;;;-1.90;95.72
49194;BME280;35029;50.804;12.866;2023-03-02T07:43:14;98254.59;;;-1.92;96.33
49194;BME280;35029;50.804;12.866;2023-03-02T07:45:40;98260.31;;;-1.74;96.39
49194;BME280;35029;50.804;12.866;2023-03-02T07:48:06;98267.69;;;-1.55;96.39
49194;BME280;35029;50.804;12.866;2023-03-02T07:50:33;98243.53;;;-1.57;95.95
49194;BME280;35029;50.804;12.866;2023-03-02T07:53:05;98266.59;;;-1.27;95.66
49194;BME280;35029;50.804;12.866;2023-03-02T07:55:32;98253.53;;;-1.14;94.17
49194;BME280;35029;50.804;12.866;2023-03-02T07:57:57;98269.03;;;-0.99;93.58
49194;BME280;35029;50.804;12.866;2023-03-02T08:00:23;98247.09;;;-0.84;93.92
49194;BME280;35029;50.804;12.866;2023-03-02T08:02:55;98267.81;;;-0.58;92.67
49194;BME280;35029;50.804;12.866;2023-03-02T08:05:29;98253.88;;;-0.46;89.83
49194;BME280;35029;50.804;12.866;2023-03-02T08:08:03;98251.91;;;-0.31;91.50
49194;BME280;35029;50.804;12.866;2023-03-02T08:10:28;98264.03;;;-0.19;89.98
49194;BME280;35029;50.804;12.866;2023-03-02T08:12:54;98257.78;;;-0.05;89.74
49194;BME280;35029;50.804;12.866;2023-03-02T08:15:20;98261.94;;;0.09;89.14
49194;BME280;35029;50.804;12.866;2023-03-02T08:17:47;98259.47;;;0.19;88.85
49194;BME280;35029;50.804;12.866;2023-03-02T08:20:12;98268.84;;;0.33;88.75
49194;BME280;35029;50.804;12.866;2023-03-02T08:22:38;98245.63;;;0.41;88.94
49194;BME280;35029;50.804;12.866;2023-03-02T08:25:06;98245.16;;;0.59;87.93
49194;BME280;35029;50.804;12.866;2023-03-02T08:27:34;98240.75;;;0.59;86.85
49194;BME280;35029;50.804;12.866;2023-03-02T08:29:59;98245.59;;;0.64;84.50
49194;BME280;35029;50.804;12.866;2023-03-02T08:32:25;98256.75;;;0.66;86.23
49194;BME280;35029;50.804;12.866;2023-03-02T08:34:51;98245.94;;;0.71;84.63
49194;BME280;35029;50.804;12.866;2023-03-02T08:37:17;98231.34;;;0.68;83.56
49194;BME280;35029;50.804;12.866;2023-03-02T08:39:43;98244.50;;;0.89;83.83
49194;BME280;35029;50.804;12.866;2023-03-02T08:42:09;98235.00;;;0.88;82.11
49194;BME280;35029;50.804;12.866;2023-03-02T08:44:35;98246.28;;;1.00;81.64
49194;BME280;35029;50.804;12.866;2023-03-02T08:47:02;98234.97;;;1.11;82.56
49194;BME280;35029;50.804;12.866;2023-03-02T08:49:27;98249.78;;;1.22;79.38
49194;BME280;35029;50.804;12.866;2023-03-02T08:51:53;98241.59;;;1.15;79.63
49194;BME280;35029;50.804;12.866;2023-03-02T08:54:22;98243.47;;;1.24;80.06
49194;BME280;35029;50.804;12.866;2023-03-02T08:56:48;98238.56;;;1.31;80.69
49194;BME280;35029;50.804;12.866;2023-03-02T08:59:16;98225.97;;;1.36;79.86
49194;BME280;35029;50.804;12.866;2023-03-02T09:01:42;98243.44;;;1.57;78.10
49194;BME280;35029;50.804;12.866;2023-03-02T09:04:09;98244.94;;;1.71;77.01
49194;BME280;35029;50.804;12.866;2023-03-02T09:06:40;98247.94;;;1.66;76.76
49194;BME280;35029;50.804;12.866;2023-03-02T09:09:07;98249.78;;;1.75;78.06
49194;BME280;35029;50.804;12.866;2023-03-02T09:11:34;98241.44;;;1.81;77.08
49194;BME280;35029;50.804;12.866;2023-03-02T09:13:59;98232.41;;;1.85;77.54
49194;BME280;35029;50.804;12.866;2023-03-02T09:16:25;98241.16;;;2.06;77.79
49194;BME280;35029;50.804;12.866;2023-03-02T09:18:52;98238.69;;;2.04;74.49
49194;BME280;35029;50.804;12.866;2023-03-02T09:21:18;98235.88;;;2.17;74.82
49194;BME280;35029;50.804;12.866;2023-03-02T09:23:44;98225.72;;;2.24;75.93
49194;BME280;35029;50.804;12.866;2023-03-02T09:26:09;98227.81;;;2.30;73.99
49194;BME280;35029;50.804;12.866;2023-03-02T09:28:35;98239.19;;;2.50;74.83
49194;BME280;35029;50.804;12.866;2023-03-02T09:31:03;98241.56;;;2.63;73.63
49194;BME280;35029;50.804;12.866;2023-03-02T09:33:30;98242.16;;;2.76;76.13
49194;BME280;35029;50.804;12.866;2023-03-02T09:35:55;98228.66;;;2.81;74.96
49194;BME280;35029;50.804;12.866;2023-03-02T09:38:22;98232.66;;;2.85;71.58
49194;BME280;35029;50.804;12.866;2023-03-02T09:46:14;98229.28;;;3.14;70.54
49194;BME280;35029;50.804;12.866;2023-03-02T09:54:39;98222.16;;;3.35;67.49
49194;BME280;35029;50.804;12.866;2023-03-02T09:57:20;98198.38;;;3.27;66.24
49194;BME280;35029;50.804;12.866;2023-03-02T09:59:51;98227.22;;;3.57;66.18
49194;BME280;35029;50.804;12.866;2023-03-02T10:04:46;98222.94;;;3.75;64.12
49194;BME280;35029;50.804;12.866;2023-03-02T10:07:16;98223.19;;;3.92;63.60
49194;BME280;35029;50.804;12.866;2023-03-02T10:09:44;98216.97;;;4.02;64.91
49194;BME280;35029;50.804;12.866;2023-03-02T10:12:42;98225.88;;;4.19;62.13
49194;BME280;35029;50.804;12.866;2023-03-02T10:15:18;98210.84;;;4.12;58.82
49194;BME280;35029;50.804;12.866;2023-03-02T10:20:42;98212.47;;;4.22;59.85
49194;BME280;35029;50.804;12.866;2023-03-02T10:23:16;98228.16;;;4.42;58.90
49194;BME280;35029;50.804;12.866;2023-03-02T10:25:49;98211.31;;;4.45;59.11
49194;BME280;35029;50.804;12.866;2023-03-02T10:28:20;98222.06;;;4.51;57.20
49194;BME280;35029;50.804;12.866;2023-03-02T10:30:52;98208.56;;;4.64;59.36
49194;BME280;35029;50.804;12.866;2023-03-02T10:33:20;98209.97;;;4.59;56.65
49194;BME280;35029;50.804;12.866;2023-03-02T10:35:49;98219.03;;;4.74;57.89
49194;BME280;35029;50.804;12.866;2023-03-02T10:38:23;98219.13;;;4.82;58.14
49194;BME280;35029;50.804;12.866;2023-03-02T10:40:50;98217.66;;;4.98;59.80
49194;BME280;35029;50.804;12.866;2023-03-02T10:43:30;98212.56;;;5.14;57.99
49194;BME280;35029;50.804;12.866;2023-03-02T10:46:06;98209.09;;;5.14;55.57
49194;BME280;35029;50.804;12.866;2023-03-02T10:48:45;98215.25;;;5.04;56.93
49194;BME280;35029;50.804;12.866;2023-03-02T10:51:23;98198.81;;;5.02;55.76
49194;BME280;35029;50.804;12.866;2023-03-02T10:53:49;98206.84;;;5.19;57.38
49194;BME280;35029;50.804;12.866;2023-03-02T10:56:20;98200.41;;;5.31;56.93
49194;BME280;35029;50.804;12.866;2023-03-02T10:58:47;98205.56;;;5.41;56.38
49194;BME280;35029;50.804;12.866;2023-03-02T11:01:17;98205.34;;;5.52;58.19
49194;BME280;35029;50.804;12.866;2023-03-02T11:04:00;98183.09;;;5.47;56.63
49194;BME280;35029;50.804;12.866;2023-03-02T11:06:28;98199.16;;;5.62;55.80
49194;BME280;35029;50.804;12.866;2023-03-02T11:09:05;98195.03;;;5.77;56.45
49194;BME280;35029;50.804;12.866;2023-03-02T11:11:31;98194.72;;;5.80;54.75
49194;BME280;35029;50.804;12.866;2023-03-02T11:14:13;98189.25;;;6.00;56.44
49194;BME280;35029;50.804;12.866;2023-03-02T11:16:40;98181.28;;;5.91;53.23
49194;BME280;35029;50.804;12.866;2023-03-02T11:19:12;98173.66;;;5.80;53.04
49194;BME280;35029;50.804;12.866;2023-03-02T11:21:43;98183.03;;;6.01;54.47
49194;BME280;35029;50.804;12.866;2023-03-02T11:24:21;98173.78;;;6.23;55.06
49194;BME280;35029;50.804;12.866;2023-03-02T11:26:54;98174.50;;;6.33;53.92
49194;BME280;35029;50.804;12.866;2023-03-02T11:29:44;98168.69;;;6.30;52.41
49194;BME280;35029;50.804;12.866;2023-03-02T11:32:21;98152.44;;;6.34;54.80
49194;BME280;35029;50.804;12.866;2023-03-02T11:34:51;98169.25;;;6.41;52.42
49194;BME280;35029;50.804;12.866;2023-03-02T11:37:25;98174.56;;;6.50;51.62
49194;BME280;35029;50.804;12.866;2023-03-02T11:42:29;98157.66;;;6.69;52.92
49194;BME280;35029;50.804;12.866;2023-03-02T11:45:05;98158.69;;;6.92;53.51
49194;BME280;35029;50.804;12.866;2023-03-02T11:50:14;98150.50;;;7.04;51.69
49194;BME280;35029;50.804;12.866;2023-03-02T11:52:45;98138.13;;;7.04;51.40
49194;BME280;35029;50.804;12.866;2023-03-02T11:58:02;98128.75;;;7.10;53.19
49194;BME280;35029;50.804;12.866;2023-03-02T12:00:38;98150.53;;;7.20;53.28
49194;BME280;35029;50.804;12.866;2023-03-02T12:05:43;98135.34;;;7.14;52.95
49194;BME280;35029;50.804;12.866;2023-03-02T12:13:38;98125.13;;;7.27;52.27
49194;BME280;35029;50.804;12.866;2023-03-02T12:16:35;98077.84;;;7.09;51.39
49194;BME280;35029;50.804;12.866;2023-03-02T12:19:24;98136.34;;;7.54;51.72
49194;BME280;35029;50.804;12.866;2023-03-02T12:24:26;98117.34;;;7.67;49.75
49194;BME280;35029;50.804;12.866;2023-03-02T12:29:43;98121.16;;;7.48;50.15
49194;BME280;35029;50.804;12.866;2023-03-02T12:32:29;98102.06;;;7.54;51.77
49194;BME280;35029;50.804;12.866;2023-03-02T12:37:51;98098.41;;;7.47;49.86
49194;BME280;35029;50.804;12.866;2023-03-02T12:43:35;98093.13;;;7.72;51.53
49194;BME280;35029;50.804;12.866;2023-03-02T12:51:26;98096.41;;;7.74;48.24
49194;BME280;35029;50.804;12.866;2023-03-02T12:54:11;98090.16;;;7.67;50.73
49194;BME280;35029;50.804;12.866;2023-03-02T12:56:37;98085.56;;;7.52;50.58
49194;BME280;35029;50.804;12.866;2023-03-02T12:59:03;98077.31;;;7.55;50.97
49194;BME280;35029;50.804;12.866;2023-03-02T13:01:30;98082.59;;;7.47;50.56
49194;BME280;35029;50.804;12.866;2023-03-02T13:03:56;98066.63;;;7.32;52.27
49194;BME280;35029;50.804;12.866;2023-03-02T13:06:25;98076.84;;;7.43;52.75
49194;BME280;35029;50.804;12.866;2023-03-02T13:08:54;98050.31;;;7.28;52.82
49194;BME280;35029;50.804;12.866;2023-03-02T13:11:30;98071.06;;;7.40;53.53
49194;BME280;35029;50.804;12.866;2023-03-02T13:13:58;98059.53;;;7.33;54.30
49194;BME280;35029;50.804;12.866;2023-03-02T13:16:28;98072.38;;;7.44;51.37
49194;BME280;35029;50.804;12.866;2023-03-02T13:18:58;98066.94;;;7.29;52.55
49194;BME280;35029;50.804;12.866;2023-03-02T13:21:33;98073.72;;;7.32;52.37
49194;BME280;35029;50.804;12.866;2023-03-02T13:24:00;98058.56;;;7.34;51.51
49194;BME280;35029;50.804;12.866;2023-03-02T13:26:33;98061.34;;;7.40;52.26
49194;BME280;35029;50.804;12.866;2023-03-02T13:29:24;98048.31;;;7.39;52.80
49194;BME280;35029;50.804;12.866;2023-03-02T13:31:47;98061.16;;;7.50;53.52
49194;BME280;35029;50.804;12.866;2023-03-02T13:34:27;98060.16;;;7.59;51.56
49194;BME280;35029;50.804;12.866;2023-03-02T13:36:55;98047.28;;;7.56;51.28
49194;BME280;35029;50.804;12.866;2023-03-02T13:39:25;98052.72;;;7.63;51.33
49194;BME280;35029;50.804;12.866;2023-03-02T13:41:58;98046.13;;;7.59;51.06
49194;BME280;35029;50.804;12.866;2023-03-02T13:44:34;98039.56;;;7.55;51.62
49194;BME280;35029;50.804;12.866;2023-03-02T13:47:00;98013.19;;;7.47;52.99
49194;BME280;35029;50.804;12.866;2023-03-02T13:49:31;98036.88;;;7.63;53.88
49194;BME280;35029;50.804;12.866;2023-03-02T13:52:04;98041.69;;;7.68;53.04
49194;BME280;35029;50.804;12.866;2023-03-02T13:54:33;98033.38;;;7.79;52.68
49194;BME280;35029;50.804;12.866;2023-03-02T13:57:01;98030.25;;;7.75;50.08
49194;BME280;35029;50.804;12.866;2023-03-02T13:59:27;98023.31;;;7.83;50.54
49194;BME280;35029;50.804;12.866;2023-03-02T14:01:54;98039.25;;;7.98;49.10
49194;BME280;35029;50.804;12.866;2023-03-02T14:04:21;98028.72;;;7.98;48.56